Terminal Aerodrome Forecast
Issued by NWS

Home | Current Version | Previous Version | Text Only | Print | Product List | Glossary On
Versions: 1 2 3 4 5 6 7 8 9 10 11 12 13 14 15 16 17
000
FTUS41 KBGM 010540
TAFITH
TAF
KITH 010540Z 0106/0206 11006KT P6SM OVC012
     FM011500 13006KT P6SM OVC022
      TEMPO 0115/0119 4SM -SHRA OVC012
     FM011900 13007KT P6SM -SHRA OVC025
     FM020000 13008KT P6SM -SHRA OVC011=

USA.gov is the U.S. government's official web portal to all federal, state and local government web resources and services.